createdAt,value
2023-01-13T00:09:56.673Z,30.60
2023-01-13T00:19:57.091Z,33.60
2023-01-13T00:29:57.368Z,29.60
2023-01-13T00:39:57.641Z,29.30
2023-01-13T00:49:57.932Z,24.00
2023-01-13T00:59:58.248Z,22.30
2023-01-13T01:09:58.520Z,24.50
2023-01-13T01:19:58.957Z,20.60
2023-01-13T01:39:59.202Z,22.70
2023-01-13T01:49:59.467Z,20.90
2023-01-13T01:59:59.679Z,22.90
2023-01-13T02:09:59.914Z,22.50
2023-01-13T02:20:00.115Z,20.40
2023-01-13T02:30:00.351Z,22.40
2023-01-13T02:40:00.625Z,23.50
2023-01-13T02:50:00.842Z,22.40
2023-01-13T03:00:01.029Z,21.00
2023-01-13T03:10:01.314Z,19.70
2023-01-13T03:20:01.595Z,18.00
2023-01-13T03:30:01.839Z,21.00
2023-01-13T03:40:02.149Z,19.50
2023-01-13T03:50:02.444Z,18.50
2023-01-13T04:10:03.058Z,18.30
2023-01-13T04:20:03.460Z,20.10
2023-01-13T04:30:03.815Z,20.00
2023-01-13T04:40:04.037Z,18.50
2023-01-13T04:50:04.349Z,17.40
2023-01-13T05:00:04.683Z,15.70
2023-01-13T05:10:05.058Z,14.80
2023-01-13T05:20:05.455Z,15.30
2023-01-13T05:30:05.771Z,15.60
2023-01-13T05:40:06.110Z,16.10
2023-01-13T05:50:06.491Z,15.40
2023-01-13T06:00:06.822Z,17.10
2023-01-13T06:10:07.176Z,16.20
2023-01-13T06:20:07.526Z,20.60
2023-01-13T06:30:07.892Z,20.30
2023-01-13T06:40:08.234Z,20.40
2023-01-13T06:50:08.551Z,21.30
2023-01-13T07:00:08.846Z,17.60
2023-01-13T07:10:09.153Z,20.60
2023-01-13T07:20:09.455Z,18.80
2023-01-13T07:30:09.774Z,19.30
2023-01-13T07:50:10.282Z,21.30
2023-01-13T08:00:12.847Z,21.10
2023-01-13T08:10:11.040Z,19.90
2023-01-13T08:20:11.459Z,23.10
2023-01-13T08:30:11.808Z,21.40
2023-01-13T08:40:12.248Z,19.70
2023-01-13T08:50:12.650Z,17.90
2023-01-13T09:00:13.002Z,19.30
2023-01-13T09:10:13.470Z,16.00
2023-01-13T09:20:14.073Z,18.00
2023-01-13T09:30:14.336Z,15.90
2023-01-13T09:40:14.949Z,16.50
2023-01-13T09:50:15.229Z,17.60
2023-01-13T10:00:15.470Z,17.50
2023-01-13T10:10:15.597Z,16.90
2023-01-13T10:20:17.253Z,18.30
2023-01-13T10:30:17.635Z,17.80
2023-01-13T10:40:16.571Z,18.90
2023-01-13T10:50:17.168Z,17.80
2023-01-13T11:00:17.102Z,21.30
2023-01-13T11:10:17.479Z,24.60
2023-01-13T11:20:17.680Z,20.30
2023-01-13T11:40:19.439Z,22.80
2023-01-13T11:50:18.478Z,22.30
2023-01-13T12:00:18.800Z,23.50
2023-01-13T12:10:19.381Z,22.40
2023-01-13T12:20:19.365Z,23.10
2023-01-13T12:30:19.708Z,27.50
2023-01-13T12:40:20.012Z,24.00
2023-01-13T12:50:20.502Z,25.80
2023-01-13T13:00:20.761Z,25.50
2023-01-13T13:10:21.064Z,25.80
2023-01-13T13:20:21.635Z,24.70
2023-01-13T13:30:21.907Z,30.60
2023-01-13T13:40:22.179Z,27.00
2023-01-13T13:50:22.770Z,27.30
2023-01-13T14:00:23.083Z,24.40
2023-01-13T14:10:23.094Z,25.80
2023-01-13T14:20:23.396Z,24.50
2023-01-13T14:30:25.728Z,26.10
2023-01-13T14:40:24.376Z,25.00
2023-01-13T14:50:26.195Z,24.80
2023-01-13T15:00:24.942Z,23.10
2023-01-13T15:10:25.240Z,23.40
2023-01-13T15:20:26.935Z,21.50
2023-01-13T15:30:26.077Z,27.00
2023-01-13T15:40:26.619Z,27.60
2023-01-13T15:50:26.797Z,27.70
2023-01-13T16:00:27.240Z,30.20
2023-01-13T16:10:27.522Z,31.20
2023-01-13T16:20:28.092Z,25.60
2023-01-13T16:30:28.390Z,26.70
2023-01-13T16:40:30.917Z,28.50
2023-01-13T16:50:29.089Z,29.40
2023-01-13T17:00:29.727Z,22.20
2023-01-13T17:10:29.921Z,18.70
2023-01-13T17:20:30.312Z,21.20
2023-01-13T17:30:30.709Z,21.50
2023-01-13T17:40:31.152Z,20.20
2023-01-13T17:50:31.599Z,17.60
2023-01-13T18:00:34.018Z,18.80
2023-01-13T18:10:32.628Z,20.60
2023-01-13T18:20:32.877Z,17.40
2023-01-13T18:30:33.331Z,20.40
2023-01-13T18:40:33.795Z,18.00
2023-01-13T18:50:34.217Z,20.20
2023-01-13T19:00:36.715Z,22.00
2023-01-13T19:10:35.511Z,22.20
2023-01-13T19:20:35.824Z,21.90
2023-01-13T19:30:36.980Z,22.50
2023-01-13T19:40:36.701Z,25.40
2023-01-13T19:50:37.299Z,27.50
2023-01-13T20:00:37.331Z,25.40
2023-01-13T20:10:37.993Z,21.90
2023-01-13T20:20:38.192Z,22.60
2023-01-13T20:30:38.783Z,27.60
2023-01-13T20:40:41.027Z,27.70
2023-01-13T20:50:39.462Z,24.80
2023-01-13T21:00:41.970Z,25.50
2023-01-13T21:10:40.537Z,27.60
2023-01-13T21:20:42.795Z,31.50
2023-01-13T21:30:43.274Z,30.90
2023-01-13T21:40:41.551Z,27.90
2023-01-13T21:50:42.257Z,31.90
2023-01-13T22:00:42.569Z,28.50
2023-01-13T22:10:43.065Z,26.30
2023-01-13T22:20:43.218Z,26.70
2023-01-13T22:30:43.571Z,26.20
2023-01-13T22:40:43.967Z,29.70
2023-01-13T22:50:44.424Z,31.30
2023-01-13T23:00:44.960Z,33.80
2023-01-13T23:10:45.435Z,30.00
2023-01-13T23:20:45.855Z,31.20
2023-01-13T23:30:46.301Z,34.50
2023-01-13T23:40:46.741Z,30.90
2023-01-13T23:50:47.140Z,32.10
